Time;durP1;ratioP1;P1;durP2;ratioP2;P2;SDS_P1;SDS_P2;PMS_P1;PMS_P2;Temp;Humidity;BMP_temperature;BMP_pressure;BME280_temperature;BME280_humidity;BME280_pressure;Samples;Min_cycle;Max_cycle;Signal;HPM_P1;HPM_P2
2021/10/08 00:01:26;;;;;;;2.55;1.42;;;;;;;11.01;98.70;102491.03;5049017;28;20087;-66
2021/10/08 00:03:51;;;;;;;2.15;1.20;;;;;;;10.97;99.04;102484.66;5051705;28;20263;-65
2021/10/08 00:06:18;;;;;;;1.83;1.40;;;;;;;10.90;98.88;102480.53;5049898;28;20520;-65
2021/10/08 00:08:44;;;;;;;2.65;1.65;;;;;;;10.86;98.95;102490.34;5051870;28;20031;-65
2021/10/08 00:11:10;;;;;;;4.78;2.08;;;;;;;10.81;98.92;102492.38;5052649;28;20504;-66
2021/10/08 00:13:36;;;;;;;2.33;1.60;;;;;;;10.81;99.63;102489.69;5048388;28;20047;-65
2021/10/08 00:16:02;;;;;;;1.60;1.23;;;;;;;10.86;99.02;102500.31;5052749;28;20124;-63
2021/10/08 00:18:28;;;;;;;2.30;1.45;;;;;;;10.79;99.31;102499.97;5043988;28;20144;-63
2021/10/08 00:20:53;;;;;;;1.88;1.35;;;;;;;10.71;99.74;102495.34;5038136;28;20079;-64
2021/10/08 00:23:19;;;;;;;2.22;1.48;;;;;;;10.73;99.29;102498.50;5051473;28;20032;-64
2021/10/08 00:25:45;;;;;;;2.45;1.45;;;;;;;10.67;99.97;102505.94;5048777;28;20781;-66
2021/10/08 00:28:10;;;;;;;4.15;1.50;;;;;;;10.58;100.00;102502.41;5050043;28;20116;-64
2021/10/08 00:30:36;;;;;;;3.45;1.60;;;;;;;10.55;100.00;102503.00;5048186;28;20032;-63
2021/10/08 00:33:02;;;;;;;2.42;1.40;;;;;;;10.46;100.00;102502.19;5038907;28;20430;-65
2021/10/08 00:35:29;;;;;;;2.85;1.58;;;;;;;10.35;100.00;102508.13;5054721;28;20397;-63
2021/10/08 00:37:54;;;;;;;1.95;1.45;;;;;;;10.32;100.00;102500.66;5040679;28;20064;-63
2021/10/08 00:40:20;;;;;;;3.03;1.33;;;;;;;10.42;100.00;102506.59;5041801;28;20061;-63
2021/10/08 00:42:47;;;;;;;1.60;1.30;;;;;;;10.30;100.00;102503.66;5049454;28;20051;-63
2021/10/08 00:45:16;;;;;;;2.10;1.30;;;;;;;10.28;100.00;102499.69;5043688;28;20099;-64
2021/10/08 00:47:42;;;;;;;1.77;1.48;;;;;;;10.12;100.00;102501.16;5046453;28;20057;-65
2021/10/08 00:50:10;;;;;;;3.33;1.30;;;;;;;10.27;100.00;102500.78;5045104;28;20099;-64
2021/10/08 00:52:36;;;;;;;3.20;1.25;;;;;;;10.11;100.00;102494.16;5050880;28;20044;-64
2021/10/08 00:55:03;;;;;;;2.78;1.58;;;;;;;10.22;100.00;102495.53;5050952;28;20025;-63
2021/10/08 00:57:29;;;;;;;2.03;1.33;;;;;;;10.21;100.00;102497.41;5046432;28;20044;-64
2021/10/08 00:59:55;;;;;;;3.22;1.52;;;;;;;10.18;100.00;102495.31;5047963;28;20033;-67
2021/10/08 01:02:24;;;;;;;3.40;1.38;;;;;;;10.18;100.00;102494.56;5048700;28;20055;-65
2021/10/08 01:04:56;;;;;;;2.63;1.70;;;;;;;10.29;100.00;102503.97;5044094;28;20036;-64
2021/10/08 01:07:22;;;;;;;2.60;1.67;;;;;;;10.34;100.00;102504.63;5044851;28;20102;-63
2021/10/08 01:09:48;;;;;;;3.25;1.83;;;;;;;10.34;100.00;102503.81;5046362;28;20055;-66
2021/10/08 01:12:14;;;;;;;2.25;1.50;;;;;;;10.42;100.00;102495.81;5043152;28;20071;-62
2021/10/08 01:14:39;;;;;;;2.75;1.55;;;;;;;10.48;99.90;102505.34;5046573;28;20036;-64
2021/10/08 01:17:17;;;;;;;3.13;1.25;;;;;;;10.36;100.00;102504.31;5043899;28;20028;-64
2021/10/08 01:19:46;;;;;;;2.45;1.40;;;;;;;10.37;100.00;102497.84;5046572;28;20090;-63
2021/10/08 01:22:13;;;;;;;3.25;1.30;;;;;;;10.38;99.81;102505.59;5047291;28;20037;-63
2021/10/08 01:24:43;;;;;;;2.45;1.40;;;;;;;10.35;99.33;102506.25;5049681;28;20493;-63
2021/10/08 01:27:10;;;;;;;6.95;1.45;;;;;;;10.34;98.81;102510.00;5049249;28;20029;-64
2021/10/08 01:29:49;;;;;;;2.83;1.42;;;;;;;10.36;98.75;102501.63;5042468;28;20044;-65
2021/10/08 01:32:15;;;;;;;1.95;1.25;;;;;;;10.27;98.01;102508.84;5043591;28;20033;-65
2021/10/08 01:34:42;;;;;;;2.50;1.58;;;;;;;10.20;97.90;102503.88;5042618;28;20032;-64
2021/10/08 01:37:08;;;;;;;2.33;1.60;;;;;;;10.17;98.13;102503.72;5049069;28;20029;-64
2021/10/08 01:39:34;;;;;;;1.98;1.25;;;;;;;10.15;98.31;102497.84;5029114;28;20096;-64
2021/10/08 01:42:05;;;;;;;5.03;1.80;;;;;;;9.99;98.60;102497.38;5045805;28;20828;-63
2021/10/08 01:44:30;;;;;;;6.03;1.40;;;;;;;10.01;98.72;102500.56;5049023;28;20159;-63
2021/10/08 01:46:56;;;;;;;1.88;1.30;;;;;;;9.96;98.81;102498.78;5049378;28;20107;-63
2021/10/08 01:49:27;;;;;;;;;;;;;;;10.01;98.28;102505.94;5049222;28;20421;-65
2021/10/08 01:51:54;;;;;;;1.95;1.52;;;;;;;10.04;98.72;102498.03;5046131;28;20553;-64
2021/10/08 01:54:20;;;;;;;2.88;1.25;;;;;;;10.11;98.14;102503.03;5052572;28;20044;-65
2021/10/08 01:56:47;;;;;;;2.20;1.55;;;;;;;10.20;97.93;102501.19;5029567;28;20023;-63
2021/10/08 01:59:14;;;;;;;2.67;1.40;;;;;;;10.06;98.28;102499.66;5052884;28;20083;-64
2021/10/08 02:01:41;;;;;;;3.45;1.67;;;;;;;9.95;98.89;102507.16;5054729;28;20701;-64
2021/10/08 02:04:13;;;;;;;2.20;1.50;;;;;;;9.73;100.00;102507.13;5041295;28;20497;-64
2021/10/08 02:06:39;;;;;;;1.67;1.35;;;;;;;9.82;100.00;102499.94;5044424;28;20078;-63
2021/10/08 02:09:06;;;;;;;1.80;1.50;;;;;;;9.70;100.00;102494.28;5048012;28;20021;-64
2021/10/08 02:11:34;;;;;;;2.40;1.58;;;;;;;9.76;100.00;102495.75;5046694;28;20094;-65
2021/10/08 02:14:00;;;;;;;6.18;1.77;;;;;;;9.84;100.00;102500.41;5060683;28;20032;-64
2021/10/08 02:16:25;;;;;;;2.47;1.50;;;;;;;9.95;100.00;102516.03;5049062;28;20029;-64
2021/10/08 02:19:00;;;;;;;2.95;1.75;;;;;;;9.98;100.00;102506.56;5043670;28;20036;-63
2021/10/08 02:21:28;;;;;;;3.20;1.80;;;;;;;10.03;100.00;102515.31;5047794;28;20076;-64
2021/10/08 02:23:54;;;;;;;3.05;1.60;;;;;;;9.94;100.00;102510.94;5049255;28;20025;-64
2021/10/08 02:26:20;;;;;;;2.28;1.58;;;;;;;9.92;100.00;102505.88;5037827;28;20029;-64
2021/10/08 02:28:46;;;;;;;3.72;2.10;;;;;;;9.94;100.00;102516.34;5057577;28;20052;-63
2021/10/08 02:31:13;;;;;;;2.63;1.67;;;;;;;9.92;100.00;102513.97;5048414;28;20435;-64
2021/10/08 02:33:38;;;;;;;2.45;1.73;;;;;;;9.92;100.00;102519.34;5035072;28;20034;-64
2021/10/08 02:36:06;;;;;;;7.30;1.75;;;;;;;9.96;99.71;102519.53;5044854;28;20029;-64
2021/10/08 02:38:34;;;;;;;3.35;1.63;;;;;;;9.81;100.00;102519.88;5047617;28;20087;-64
2021/10/08 02:41:00;;;;;;;9.23;1.83;;;;;;;9.79;100.00;102516.69;5039900;28;20127;-64
2021/10/08 02:43:26;;;;;;;3.05;1.73;;;;;;;9.89;100.00;102525.31;5048363;28;20039;-64
2021/10/08 02:45:52;;;;;;;3.58;1.80;;;;;;;9.91;99.97;102527.72;5049955;28;20084;-67
2021/10/08 02:48:19;;;;;;;2.35;1.55;;;;;;;9.84;100.00;102528.13;5045219;28;20111;-66
2021/10/08 02:50:46;;;;;;;2.63;1.88;;;;;;;9.75;100.00;102521.06;5047239;28;20025;-65
2021/10/08 02:53:12;;;;;;;3.08;2.03;;;;;;;9.60;100.00;102526.78;5049773;28;20028;-65
2021/10/08 02:55:38;;;;;;;2.75;1.70;;;;;;;9.61;100.00;102536.44;5047881;28;20036;-65
2021/10/08 02:58:04;;;;;;;2.75;1.60;;;;;;;9.47;100.00;102527.59;5046061;28;20394;-64
2021/10/08 03:00:30;;;;;;;2.47;1.55;;;;;;;9.48;100.00;102534.56;5048920;28;20490;-65
2021/10/08 03:02:55;;;;;;;2.03;1.48;;;;;;;9.56;100.00;102533.88;5045815;28;20044;-65
2021/10/08 03:05:21;;;;;;;3.95;2.00;;;;;;;9.49;100.00;102522.72;5047617;28;20074;-66
2021/10/08 03:07:47;;;;;;;4.10;1.92;;;;;;;9.41;100.00;102528.78;5048904;28;20036;-65
2021/10/08 03:10:17;;;;;;;3.83;1.85;;;;;;;9.58;100.00;102523.59;5042012;28;20056;-65
2021/10/08 03:12:44;;;;;;;2.47;1.77;;;;;;;9.61;100.00;102531.88;5046024;28;20563;-65
2021/10/08 03:15:09;;;;;;;4.35;1.65;;;;;;;9.57;100.00;102533.56;5044590;28;20120;-66
2021/10/08 03:17:40;;;;;;;4.03;1.80;;;;;;;9.68;100.00;102526.06;5048584;28;20036;-66
2021/10/08 03:20:07;;;;;;;2.05;1.58;;;;;;;9.73;100.00;102534.84;5044243;28;20498;-65
2021/10/08 03:22:34;;;;;;;4.60;1.52;;;;;;;9.62;100.00;102535.34;5045732;28;20029;-65
2021/10/08 03:24:59;;;;;;;3.30;1.42;;;;;;;9.56;99.73;102533.88;5048532;28;20032;-65
2021/10/08 03:27:25;;;;;;;3.35;1.60;;;;;;;9.63;100.00;102543.13;5049436;28;20021;-65
2021/10/08 03:29:51;;;;;;;2.33;1.52;;;;;;;9.60;99.31;102535.63;5044733;28;20398;-65
2021/10/08 03:32:17;;;;;;;2.80;1.50;;;;;;;9.49;98.71;102536.16;5047912;28;20482;-65
2021/10/08 03:34:44;;;;;;;2.20;1.30;;;;;;;9.46;99.08;102532.19;5048566;28;20094;-65
2021/10/08 03:37:13;;;;;;;2.45;1.15;;;;;;;9.47;99.04;102539.16;5047821;28;20033;-65
2021/10/08 03:39:42;;;;;;;2.03;1.52;;;;;;;9.42;98.37;102525.81;5043796;28;20035;-65
2021/10/08 03:42:12;;;;;;;5.10;1.35;;;;;;;9.45;99.07;102535.16;5040385;28;20033;-65
2021/10/08 03:44:39;;;;;;;2.00;1.25;;;;;;;9.37;99.29;102539.34;5048321;28;20060;-65
2021/10/08 03:47:15;;;;;;;2.25;1.45;;;;;;;9.35;99.64;102538.06;5049736;28;20067;-65
2021/10/08 03:49:44;;;;;;;2.47;1.35;;;;;;;9.35;98.95;102546.13;5048746;28;20032;-65
2021/10/08 03:52:10;;;;;;;3.35;1.52;;;;;;;9.26;99.11;102534.47;5051795;28;20029;-65
2021/10/08 03:54:36;;;;;;;2.28;1.48;;;;;;;9.22;99.73;102546.91;5051593;28;20037;-65
2021/10/08 03:57:02;;;;;;;2.63;1.55;;;;;;;9.18;99.66;102535.97;5052089;28;20112;-65
2021/10/08 03:59:28;;;;;;;2.55;1.63;;;;;;;9.21;99.46;102550.72;5046403;28;20041;-65
2021/10/08 04:01:55;;;;;;;2.15;1.25;;;;;;;9.18;99.45;102541.34;5045781;28;20047;-65
2021/10/08 04:04:22;;;;;;;1.98;1.40;;;;;;;9.13;99.29;102548.72;5048830;28;20723;-65
2021/10/08 04:06:49;;;;;;;2.20;1.52;;;;;;;9.04;100.00;102546.72;5052428;28;20648;-65
2021/10/08 04:09:15;;;;;;;3.83;1.80;;;;;;;9.09;99.68;102556.56;5065122;28;20021;-65
2021/10/08 04:11:43;;;;;;;1.83;1.35;;;;;;;8.98;100.00;102547.88;5056098;28;20078;-65
2021/10/08 04:14:10;;;;;;;2.55;1.40;;;;;;;8.85;100.00;102553.25;5050625;28;20438;-65
2021/10/08 04:16:36;;;;;;;2.03;1.40;;;;;;;8.78;100.00;102555.53;5048036;28;20464;-65
2021/10/08 04:19:04;;;;;;;1.83;1.30;;;;;;;8.72;100.00;102556.69;5050441;28;20387;-65
2021/10/08 04:21:30;;;;;;;2.83;1.92;;;;;;;8.76;100.00;102558.53;5048688;28;20094;-65
2021/10/08 04:23:55;;;;;;;3.70;1.77;;;;;;;8.88;100.00;102548.06;5050573;28;20489;-65
2021/10/08 04:26:23;;;;;;;4.85;1.90;;;;;;;8.78;100.00;102564.38;5051028;28;20110;-65
2021/10/08 04:28:50;;;;;;;2.10;1.35;;;;;;;8.72;100.00;102560.19;5046792;28;20021;-65
2021/10/08 04:31:16;;;;;;;3.15;1.83;;;;;;;8.77;100.00;102562.78;5051028;28;20074;-65
2021/10/08 04:33:43;;;;;;;5.35;1.88;;;;;;;8.73;100.00;102558.31;5049994;28;20099;-65
2021/10/08 04:36:08;;;;;;;2.75;1.70;;;;;;;8.65;100.00;102559.75;5049018;28;20485;-65
2021/10/08 04:38:37;;;;;;;4.75;2.35;;;;;;;8.67;100.00;102554.13;5045911;28;20051;-65
2021/10/08 04:41:06;;;;;;;6.95;2.25;;;;;;;8.70;100.00;102567.75;5046063;28;20029;-65
2021/10/08 04:43:33;;;;;;;3.88;1.75;;;;;;;8.74;100.00;102568.75;5047324;28;20501;-65
2021/10/08 04:45:58;;;;;;;2.92;1.67;;;;;;;8.82;100.00;102578.03;5049855;28;20048;-65
2021/10/08 04:48:25;;;;;;;3.30;1.98;;;;;;;8.74;100.00;102562.59;5048895;28;20021;-65
2021/10/08 04:50:50;;;;;;;3.53;2.20;;;;;;;8.76;100.00;102574.63;5050135;28;20036;-65
2021/10/08 04:53:20;;;;;;;3.15;2.10;;;;;;;8.69;100.00;102573.41;5047060;28;20032;-65
2021/10/08 04:55:47;;;;;;;4.75;1.80;;;;;;;8.71;100.00;102572.00;5037771;28;20021;-64
2021/10/08 04:58:13;;;;;;;3.60;2.13;;;;;;;8.67;100.00;102572.91;5048612;28;20028;-65
2021/10/08 05:00:41;;;;;;;3.33;1.92;;;;;;;8.68;100.00;102575.31;5047382;28;20075;-65
2021/10/08 05:03:11;;;;;;;3.47;1.75;;;;;;;8.72;100.00;102567.44;5049724;28;20025;-65
2021/10/08 05:05:38;;;;;;;;;;;;;;;8.72;100.00;102573.63;5046047;28;20673;-65
2021/10/08 05:08:04;;;;;;;2.83;1.80;;;;;;;8.73;100.00;102571.75;5048336;28;19927;-65
2021/10/08 05:10:31;;;;;;;3.70;1.77;;;;;;;8.71;100.00;102577.38;5049987;28;20116;-65
2021/10/08 05:12:59;;;;;;;3.95;1.85;;;;;;;8.78;100.00;102575.13;5049972;28;20457;-66
2021/10/08 05:15:26;;;;;;;4.28;1.75;;;;;;;8.74;100.00;102571.44;5046850;28;20103;-65
2021/10/08 05:17:52;;;;;;;4.07;2.03;;;;;;;8.67;100.00;102581.75;5049019;28;20037;-65
2021/10/08 05:20:18;;;;;;;3.67;1.95;;;;;;;8.57;100.00;102573.88;5047742;28;20032;-65
2021/10/08 05:22:49;;;;;;;;;;;;;;;8.49;100.00;102582.59;5050705;28;20405;-65
2021/10/08 05:25:15;;;;;;;4.90;2.10;;;;;;;8.45;100.00;102575.41;5056508;28;19913;-65
2021/10/08 05:27:42;;;;;;;6.07;2.63;;;;;;;8.57;100.00;102576.56;5044778;28;20037;-65
2021/10/08 05:30:10;;;;;;;2.42;1.60;;;;;;;8.69;100.00;102579.56;5048018;28;20691;-65
2021/10/08 05:32:36;;;;;;;4.05;2.10;;;;;;;8.75;100.00;102583.75;5046868;28;20116;-64
2021/10/08 05:35:02;;;;;;;3.05;1.92;;;;;;;8.63;100.00;102578.06;5045620;28;20116;-65
2021/10/08 05:37:28;;;;;;;4.25;1.98;;;;;;;8.57;100.00;102573.88;5049908;28;20036;-65
2021/10/08 05:39:54;;;;;;;3.42;1.80;;;;;;;8.64;100.00;102578.84;5045931;28;20025;-65
2021/10/08 05:42:20;;;;;;;3.00;2.10;;;;;;;8.73;100.00;102577.13;5066052;28;20028;-65
2021/10/08 05:44:45;;;;;;;2.10;1.85;;;;;;;8.69;100.00;102584.94;5043969;28;20033;-65
2021/10/08 05:47:11;;;;;;;3.55;1.92;;;;;;;8.72;100.00;102575.50;5048205;28;20065;-65
2021/10/08 05:49:37;;;;;;;3.38;1.95;;;;;;;8.68;100.00;102586.03;5048210;28;20021;-65
2021/10/08 05:52:02;;;;;;;3.35;1.45;;;;;;;8.58;100.00;102591.56;5047699;28;20378;-65
2021/10/08 05:54:28;;;;;;;5.15;1.58;;;;;;;8.49;100.00;102585.28;5066136;28;20098;-65
2021/10/08 05:56:53;;;;;;;2.30;1.67;;;;;;;8.42;100.00;102592.88;5049882;28;20127;-64
2021/10/08 05:59:19;;;;;;;3.30;1.77;;;;;;;8.44;100.00;102590.72;5043293;28;20039;-65
2021/10/08 06:01:45;;;;;;;3.83;1.70;;;;;;;8.47;100.00;102595.50;5035389;28;20037;-64
2021/10/08 06:04:10;;;;;;;3.40;1.67;;;;;;;8.51;100.00;102604.59;5046714;28;20114;-64
2021/10/08 06:06:39;;;;;;;7.72;2.28;;;;;;;8.50;100.00;102604.84;5035178;28;20029;-64
2021/10/08 06:09:05;;;;;;;4.95;1.83;;;;;;;8.49;100.00;102609.44;5040043;28;20025;-64
2021/10/08 06:11:32;;;;;;;4.38;1.88;;;;;;;8.48;100.00;102607.84;5047664;28;20493;-65
2021/10/08 06:13:58;;;;;;;3.20;1.92;;;;;;;8.65;100.00;102616.16;5033641;28;20043;-63
2021/10/08 06:16:25;;;;;;;5.13;1.90;;;;;;;8.68;100.00;102614.78;5040405;28;20033;-64
2021/10/08 06:18:51;;;;;;;4.30;1.90;;;;;;;8.73;100.00;102622.78;5042581;28;20036;-64
2021/10/08 06:21:17;;;;;;;8.77;2.47;;;;;;;8.75;100.00;102616.00;5042394;28;20029;-64
2021/10/08 06:23:43;;;;;;;4.18;2.08;;;;;;;8.81;100.00;102622.88;5042067;28;20036;-64
2021/10/08 06:26:09;;;;;;;3.42;2.28;;;;;;;8.87;100.00;102613.66;5046463;28;20491;-64
2021/10/08 06:28:35;;;;;;;4.97;1.77;;;;;;;8.93;100.00;102617.84;5040060;28;20064;-64
2021/10/08 06:31:02;;;;;;;3.70;1.80;;;;;;;8.93;100.00;102615.16;5046543;28;20087;-64
2021/10/08 06:33:31;;;;;;;6.43;2.58;;;;;;;8.97;100.00;102623.44;5048105;28;20420;-63
2021/10/08 06:35:57;;;;;;;5.85;2.60;;;;;;;9.09;100.00;102626.44;5049724;28;20120;-64
2021/10/08 06:38:23;;;;;;;3.67;2.10;;;;;;;9.12;100.00;102627.75;5039105;28;20082;-64
2021/10/08 06:40:51;;;;;;;5.03;2.92;;;;;;;9.08;100.00;102625.66;5042802;28;20034;-64
2021/10/08 06:43:17;;;;;;;5.57;2.47;;;;;;;9.16;100.00;102632.22;5040978;28;20037;-64
2021/10/08 06:45:54;;;;;;;4.95;2.15;;;;;;;9.24;100.00;102638.81;5039284;28;20025;-64
2021/10/08 06:48:20;;;;;;;5.53;3.05;;;;;;;9.21;100.00;102636.72;5044706;28;20033;-64
2021/10/08 06:50:47;;;;;;;2.75;1.98;;;;;;;9.26;100.00;102636.63;5044820;28;20040;-64
2021/10/08 06:53:15;;;;;;;5.90;2.70;;;;;;;9.20;100.00;102643.19;5042746;28;20025;-64
2021/10/08 06:55:42;;;;;;;3.40;1.85;;;;;;;9.17;100.00;102649.16;5043037;28;20064;-64
2021/10/08 06:58:11;;;;;;;3.65;2.30;;;;;;;9.21;100.00;102652.84;5043966;28;20950;-65
2021/10/08 07:00:38;;;;;;;4.35;2.35;;;;;;;9.27;100.00;102644.38;5046013;28;20159;-64
2021/10/08 07:03:06;;;;;;;4.78;2.70;;;;;;;9.31;100.00;102652.69;5043093;28;20078;-64
2021/10/08 07:05:35;;;;;;;7.38;2.13;;;;;;;9.19;100.00;102645.09;5045508;28;20028;-64
2021/10/08 07:08:03;;;;;;;4.57;2.58;;;;;;;9.19;100.00;102655.03;5041178;28;20024;-64
2021/10/08 07:10:29;;;;;;;4.40;2.15;;;;;;;9.25;100.00;102649.28;5042840;28;20616;-64
2021/10/08 07:12:55;;;;;;;5.70;2.85;;;;;;;9.32;100.00;102649.69;5039894;28;20148;-64
2021/10/08 07:15:22;;;;;;;5.55;2.35;;;;;;;9.40;100.00;102650.88;5048323;28;20037;-64
2021/10/08 07:17:51;;;;;;;6.88;2.80;;;;;;;9.59;100.00;102656.97;5039948;28;20021;-64
2021/10/08 07:20:24;;;;;;;5.20;2.85;;;;;;;9.71;100.00;102651.91;5034195;28;20400;-63
2021/10/08 07:22:51;;;;;;;6.32;3.20;;;;;;;9.86;100.00;102659.66;5040988;28;20041;-65
2021/10/08 07:25:18;;;;;;;6.82;3.50;;;;;;;10.04;100.00;102664.91;5041452;28;20032;-65
2021/10/08 07:27:46;;;;;;;6.90;3.42;;;;;;;10.13;100.00;102666.94;5041054;28;20889;-65
2021/10/08 07:30:12;;;;;;;6.90;3.35;;;;;;;10.25;100.00;102678.81;5044119;28;20574;-64
2021/10/08 07:32:38;;;;;;;5.68;2.90;;;;;;;10.38;100.00;102669.09;5049731;28;20028;-65
2021/10/08 07:35:11;;;;;;;7.22;3.35;;;;;;;10.54;100.00;102673.84;5041649;28;20095;-64
2021/10/08 07:37:37;;;;;;;4.95;2.63;;;;;;;10.86;100.00;102673.59;5043330;28;20037;-64
2021/10/08 07:40:03;;;;;;;7.13;3.20;;;;;;;11.10;100.00;102676.00;5043719;28;20481;-65
2021/10/08 07:42:29;;;;;;;10.07;5.03;;;;;;;11.36;100.00;102676.91;5048281;28;20040;-64
2021/10/08 07:44:55;;;;;;;7.32;3.42;;;;;;;11.52;100.00;102675.41;5049937;28;20793;-65
2021/10/08 07:47:20;;;;;;;5.25;2.85;;;;;;;11.69;100.00;102682.84;5041929;28;20037;-65
2021/10/08 07:49:46;;;;;;;5.82;3.13;;;;;;;11.87;100.00;102679.06;5042785;28;20033;-64
2021/10/08 07:52:12;;;;;;;8.68;3.10;;;;;;;12.07;100.00;102681.22;5046461;28;20076;-64
2021/10/08 07:54:38;;;;;;;4.90;2.72;;;;;;;12.26;100.00;102676.31;5045518;28;20488;-65
2021/10/08 07:57:04;;;;;;;4.85;2.97;;;;;;;12.41;100.00;102686.66;5041412;28;20036;-64
2021/10/08 07:59:30;;;;;;;4.35;2.80;;;;;;;12.53;100.00;102686.03;5044456;28;20037;-64
2021/10/08 08:01:55;;;;;;;5.15;3.03;;;;;;;12.68;100.00;102686.34;5047071;28;20033;-64
2021/10/08 08:04:21;;;;;;;5.43;3.25;;;;;;;12.70;100.00;102683.31;5049402;28;20565;-64
2021/10/08 08:06:46;;;;;;;6.53;2.67;;;;;;;12.81;100.00;102683.81;5045700;28;20071;-64
2021/10/08 08:09:12;;;;;;;4.60;2.80;;;;;;;12.94;100.00;102693.66;5044979;28;20025;-65
2021/10/08 08:11:37;;;;;;;5.78;3.20;;;;;;;13.07;100.00;102690.00;5043903;28;20033;-65
2021/10/08 08:14:03;;;;;;;5.07;2.65;;;;;;;13.16;100.00;102696.97;5045805;28;20700;-64
2021/10/08 08:16:28;;;;;;;4.85;2.83;;;;;;;13.25;100.00;102688.84;5046382;28;20040;-64
2021/10/08 08:18:54;;;;;;;4.90;2.72;;;;;;;13.35;100.00;102696.63;5041727;28;20142;-65
2021/10/08 08:21:21;;;;;;;7.78;2.80;;;;;;;13.56;100.00;102692.09;5044132;28;20508;-65
2021/10/08 08:23:46;;;;;;;5.00;2.75;;;;;;;13.62;100.00;102698.94;5049330;28;20106;-65
2021/10/08 08:26:11;;;;;;;7.53;2.92;;;;;;;13.77;100.00;102692.16;5042212;28;20513;-65
2021/10/08 08:28:37;;;;;;;4.07;2.53;;;;;;;13.79;100.00;102696.16;5043021;28;20026;-65
2021/10/08 08:31:02;;;;;;;3.05;2.25;;;;;;;13.83;100.00;102693.56;5044140;28;20017;-65
2021/10/08 08:33:29;;;;;;;5.07;2.70;;;;;;;13.88;100.00;102691.47;5047081;28;20048;-65
2021/10/08 08:35:55;;;;;;;4.82;2.53;;;;;;;13.95;100.00;102699.91;5040775;28;20045;-65
2021/10/08 08:38:20;;;;;;;4.32;2.50;;;;;;;14.04;100.00;102695.22;5041369;28;20025;-65
2021/10/08 08:40:46;;;;;;;3.33;2.10;;;;;;;14.30;99.19;102692.38;5045520;28;20096;-65
2021/10/08 08:43:12;;;;;;;2.65;1.73;;;;;;;14.52;98.72;102691.28;5043658;28;20037;-64
2021/10/08 08:45:37;;;;;;;2.90;2.00;;;;;;;14.69;98.64;102697.31;5043037;28;20029;-65
2021/10/08 08:48:06;;;;;;;2.45;1.80;;;;;;;14.91;97.45;102688.84;5045337;28;20102;-65
2021/10/08 08:50:34;;;;;;;2.97;2.00;;;;;;;15.09;97.05;102694.91;5043564;28;20048;-64
2021/10/08 08:53:00;;;;;;;2.85;1.80;;;;;;;15.25;96.65;102695.88;5037468;28;20152;-64
2021/10/08 08:55:26;;;;;;;3.20;1.90;;;;;;;15.51;95.51;102693.66;5045247;28;20777;-65
2021/10/08 08:57:52;;;;;;;2.17;1.40;;;;;;;15.71;94.19;102681.94;5040679;28;20097;-64
2021/10/08 09:00:19;;;;;;;5.45;1.70;;;;;;;15.92;92.54;102692.66;5039018;28;20041;-65
2021/10/08 09:02:53;;;;;;;1.83;1.33;;;;;;;16.04;90.50;102685.31;5044369;28;20029;-63
2021/10/08 09:05:25;;;;;;;3.05;1.50;;;;;;;16.28;89.78;102690.69;5040096;28;21134;-65
2021/10/08 09:07:54;;;;;;;1.70;1.38;;;;;;;16.56;87.17;102696.22;5040400;28;20025;-64
2021/10/08 09:10:22;;;;;;;2.08;1.23;;;;;;;16.70;86.75;102699.38;5046153;28;20126;-65
2021/10/08 09:12:49;;;;;;;1.60;1.10;;;;;;;16.84;85.71;102691.56;5045915;28;20036;-65
2021/10/08 09:15:17;;;;;;;1.10;0.88;;;;;;;17.04;85.03;102692.50;5035591;28;20441;-64
2021/10/08 09:17:42;;;;;;;1.30;1.10;;;;;;;17.21;84.63;102686.72;5035555;28;20102;-65
2021/10/08 09:20:17;;;;;;;1.30;1.02;;;;;;;17.41;82.44;102693.88;5046601;28;20488;-65
2021/10/08 09:22:45;;;;;;;1.15;1.00;;;;;;;17.60;82.25;102696.72;5044725;28;20043;-64
2021/10/08 09:25:19;;;;;;;1.05;0.95;;;;;;;17.58;82.16;102692.75;5046338;28;20029;-64
2021/10/08 09:27:50;;;;;;;3.75;0.95;;;;;;;17.65;81.54;102695.69;5044530;28;20044;-65
2021/10/08 09:30:16;;;;;;;1.00;0.90;;;;;;;17.73;81.83;102692.00;5044729;28;20082;-64
2021/10/08 09:32:49;;;;;;;1.65;0.90;;;;;;;17.63;80.58;102696.03;5048349;28;20082;-64
2021/10/08 09:35:17;;;;;;;1.13;0.80;;;;;;;17.51;81.40;102687.94;5041027;28;20032;-65
2021/10/08 09:37:45;;;;;;;0.90;0.88;;;;;;;17.55;80.63;102688.03;5046976;28;20033;-65
2021/10/08 09:40:23;;;;;;;1.00;0.70;;;;;;;17.51;81.19;102690.66;5036066;28;20048;-64
2021/10/08 09:42:55;;;;;;;2.20;0.80;;;;;;;17.53;80.54;102691.13;5044650;28;20163;-65
2021/10/08 09:45:47;;;;;;;1.38;0.70;;;;;;;17.55;80.93;102693.47;5042585;28;20044;-65
2021/10/08 09:48:13;;;;;;;1.17;0.70;;;;;;;17.56;79.87;102695.03;5043179;28;20409;-64
2021/10/08 09:51:15;;;;;;;0.50;0.50;;;;;;;17.64;80.03;102692.16;5040244;28;20418;-65
2021/10/08 09:53:46;;;;;;;0.80;0.60;;;;;;;17.66;79.84;102689.88;5043239;28;20032;-65
2021/10/08 09:56:32;;;;;;;1.42;0.60;;;;;;;17.72;80.63;102693.13;5043929;28;20401;-65
2021/10/08 09:58:59;;;;;;;1.08;0.70;;;;;;;17.83;80.15;102692.22;5043627;28;20029;-65
2021/10/08 10:01:27;;;;;;;1.30;0.70;;;;;;;17.94;79.44;102700.66;5041798;28;20064;-64
2021/10/08 10:03:53;;;;;;;2.72;0.60;;;;;;;17.98;79.48;102691.41;5042788;28;20072;-64
2021/10/08 10:06:20;;;;;;;2.40;0.75;;;;;;;18.07;78.03;102691.22;5036526;28;20476;-65
2021/10/08 10:08:47;;;;;;;0.75;0.50;;;;;;;18.10;76.38;102692.47;5044343;28;20024;-64
2021/10/08 10:11:16;;;;;;;0.75;0.40;;;;;;;18.15;74.72;102695.69;5039112;28;20040;-65
2021/10/08 10:13:46;;;;;;;0.68;0.65;;;;;;;18.04;73.78;102700.09;5042745;28;20033;-65
2021/10/08 10:16:15;;;;;;;0.43;0.43;;;;;;;18.12;73.25;102695.63;5035269;28;20090;-64
2021/10/08 10:18:42;;;;;;;1.23;0.43;;;;;;;18.12;73.67;102695.63;5033600;28;20025;-65
2021/10/08 10:21:09;;;;;;;0.40;0.40;;;;;;;18.20;73.40;102695.41;5039551;28;20029;-64
2021/10/08 10:23:35;;;;;;;0.50;0.50;;;;;;;18.29;72.11;102700.69;5043576;28;20120;-65
2021/10/08 10:26:02;;;;;;;0.30;0.30;;;;;;;18.30;70.28;102694.06;5043590;28;20140;-65
2021/10/08 10:28:27;;;;;;;0.30;0.30;;;;;;;18.35;68.33;102699.25;5042355;28;20047;-65
2021/10/08 10:30:53;;;;;;;0.40;0.40;;;;;;;18.36;68.26;102696.16;5037500;28;20036;-65
2021/10/08 10:33:25;;;;;;;0.55;0.40;;;;;;;18.45;68.92;102694.03;5045337;28;20056;-65
2021/10/08 10:35:56;;;;;;;0.73;0.50;;;;;;;18.51;69.24;102694.53;5043824;28;20044;-65
2021/10/08 10:38:37;;;;;;;1.35;0.50;;;;;;;18.51;69.04;102697.28;5042069;28;20043;-64
2021/10/08 10:41:08;;;;;;;0.75;0.60;;;;;;;18.56;69.29;102688.81;5046774;28;20033;-65
2021/10/08 10:43:40;;;;;;;;;;;;;;;18.56;68.96;102697.00;5043827;28;20036;-65
2021/10/08 10:51:56;;;;;;;0.40;0.30;;;;;;;18.74;69.70;102696.22;5040680;28;20036;-65
2021/10/08 10:54:33;;;;;;;0.43;0.30;;;;;;;18.80;69.32;102694.78;5042234;28;20033;-65
2021/10/08 10:57:00;;;;;;;0.40;0.40;;;;;;;18.87;68.82;102694.91;5045850;28;20371;-64
2021/10/08 10:59:29;;;;;;;0.45;0.40;;;;;;;18.92;68.38;102696.56;5046003;28;20051;-65
2021/10/08 11:02:08;;;;;;;0.50;0.50;;;;;;;19.00;68.64;102697.47;5046580;28;20036;-64
2021/10/08 11:04:41;;;;;;;1.00;0.50;;;;;;;19.05;68.47;102697.19;5043335;28;20048;-64
2021/10/08 11:07:06;;;;;;;2.13;0.40;;;;;;;19.04;67.61;102695.59;5039374;28;20505;-64
2021/10/08 11:09:33;;;;;;;1.42;0.52;;;;;;;19.03;67.17;102692.06;5041467;28;20040;-65
2021/10/08 11:12:28;;;;;;;1.05;0.57;;;;;;;19.06;67.87;102683.19;5045658;28;20017;-65
2021/10/08 11:15:16;;;;;;;0.50;0.40;;;;;;;19.03;68.43;102683.88;5042500;28;20509;-64
2021/10/08 11:17:52;;;;;;;0.60;0.50;;;;;;;19.10;69.84;102685.97;5048002;28;20100;-65
2021/10/08 11:20:30;;;;;;;1.08;0.68;;;;;;;19.12;69.32;102676.25;5042720;28;20028;-65
2021/10/08 11:23:04;;;;;;;0.95;0.60;;;;;;;19.20;69.78;102677.94;5046092;28;20037;-64
2021/10/08 11:25:32;;;;;;;2.20;0.93;;;;;;;19.29;70.33;102677.72;5042767;28;20041;-65
2021/10/08 11:27:58;;;;;;;0.82;0.73;;;;;;;19.37;69.55;102674.78;5045352;28;20021;-65
2021/10/08 11:30:26;;;;;;;1.77;1.08;;;;;;;19.43;69.96;102678.00;5046695;28;20075;-65
2021/10/08 11:32:54;;;;;;;1.60;1.15;;;;;;;19.48;73.01;102685.88;5042819;28;20115;-65